Time;durP1;ratioP1;P1;durP2;ratioP2;P2;SDS_P1;SDS_P2;PMS_P1;PMS_P2;Temp;Humidity;BMP_temperature;BMP_pressure;BME280_temperature;BME280_humidity;BME280_pressure;Samples;Min_cycle;Max_cycle;Signal;HPM_P1;HPM_P2
2022/07/04 00:00:19;;;;;;;9.57;3.25;;;12.20;99.90;;;;;;5028743;27;20080;-71
2022/07/04 00:02:45;;;;;;;6.72;3.10;;;12.20;99.90;;;;;;5027589;27;20051;-71
2022/07/04 00:05:12;;;;;;;7.90;3.15;;;12.20;99.90;;;;;;5007957;28;20057;-71
2022/07/04 00:07:43;;;;;;;5.93;3.20;;;12.20;99.90;;;;;;5009842;27;20045;-71
2022/07/04 00:10:11;;;;;;;7.63;3.10;;;12.20;99.90;;;;;;5027322;27;20481;-71
2022/07/04 00:12:37;;;;;;;5.65;2.90;;;12.20;99.90;;;;;;5021415;28;20049;-71
2022/07/04 00:15:04;;;;;;;8.65;3.20;;;12.20;99.90;;;;;;5023660;28;20121;-71
2022/07/04 00:17:30;;;;;;;6.95;3.15;;;12.20;99.90;;;;;;5023251;28;20511;-71
2022/07/04 00:19:56;;;;;;;6.72;3.05;;;12.20;99.90;;;;;;5020438;28;20073;-71
2022/07/04 00:22:22;;;;;;;8.02;3.28;;;12.10;99.90;;;;;;5027102;28;20064;-71
2022/07/04 00:24:47;;;;;;;9.75;3.38;;;12.10;99.90;;;;;;5027684;28;20076;-72
2022/07/04 00:27:13;;;;;;;8.63;3.10;;;12.10;99.90;;;;;;5021386;28;20132;-71
2022/07/04 00:29:39;;;;;;;8.32;3.45;;;12.10;99.90;;;;;;5021478;28;20038;-74
2022/07/04 00:32:05;;;;;;;10.88;3.40;;;12.10;99.90;;;;;;5022757;28;20402;-71
2022/07/04 00:34:31;;;;;;;6.63;2.78;;;12.00;99.90;;;;;;5003932;28;20037;-71
2022/07/04 00:36:57;;;;;;;6.55;3.20;;;12.00;99.90;;;;;;5025242;28;20041;-72
2022/07/04 00:39:23;;;;;;;6.80;3.10;;;11.90;99.90;;;;;;5021486;28;20046;-71
2022/07/04 00:41:49;;;;;;;8.48;3.47;;;12.00;99.90;;;;;;5003509;28;20494;-72
2022/07/04 00:44:17;;;;;;;7.43;3.28;;;11.90;99.90;;;;;;5020148;28;20117;-72
2022/07/04 00:46:44;;;;;;;5.90;2.70;;;12.00;99.90;;;;;;5024940;28;20041;-73
2022/07/04 00:49:11;;;;;;;8.93;3.58;;;11.90;99.90;;;;;;5004380;28;20049;-74
2022/07/04 00:51:39;;;;;;;6.75;3.20;;;11.90;99.90;;;;;;5021116;28;20494;-74
2022/07/04 00:54:07;;;;;;;6.80;3.25;;;11.90;99.90;;;;;;5023551;28;20046;-74
2022/07/04 00:56:36;;;;;;;6.38;3.05;;;11.80;99.90;;;;;;5007312;28;20505;-74
2022/07/04 00:59:02;;;;;;;7.47;3.20;;;11.80;99.90;;;;;;5027873;28;20064;-74
2022/07/04 01:01:28;;;;;;;5.30;3.15;;;11.80;99.90;;;;;;5026533;28;20037;-74
2022/07/04 01:03:56;;;;;;;6.20;3.10;;;11.80;99.90;;;;;;5057052;28;21336;-74
2022/07/04 01:06:21;;;;;;;6.45;3.15;;;11.70;99.90;;;;;;5025302;27;20057;-74
2022/07/04 01:08:47;;;;;;;6.38;3.13;;;11.70;99.90;;;;;;5023994;28;20054;-74
2022/07/04 01:11:14;;;;;;;6.90;2.78;;;11.70;99.90;;;;;;5023993;28;20045;-74
2022/07/04 01:13:41;;;;;;;8.75;3.45;;;11.70;99.90;;;;;;5006425;28;20077;-74
2022/07/04 01:16:08;;;;;;;8.20;3.35;;;11.70;99.90;;;;;;5026354;27;20082;-74
2022/07/04 01:18:34;;;;;;;9.68;3.72;;;11.70;99.90;;;;;;5026093;28;20410;-74
2022/07/04 01:21:00;;;;;;;7.45;3.13;;;11.70;99.90;;;;;;5008525;28;20167;-74
2022/07/04 01:23:26;;;;;;;8.65;3.28;;;11.70;99.90;;;;;;5005798;28;20499;-74
2022/07/04 01:25:52;;;;;;;5.68;3.53;;;11.70;99.90;;;;;;5026780;28;20045;-74
2022/07/04 01:28:19;;;;;;;5.93;3.10;;;11.60;99.90;;;;;;5009178;28;20459;-74
2022/07/04 01:30:45;;;;;;;7.25;3.50;;;11.60;99.90;;;;;;5006562;28;20050;-74
2022/07/04 01:33:11;;;;;;;7.82;3.75;;;11.60;99.90;;;;;;5024799;27;20121;-74
2022/07/04 01:35:36;;;;;;;8.48;3.60;;;11.60;99.90;;;;;;5024104;28;20177;-74
2022/07/04 01:38:02;;;;;;;9.68;3.80;;;11.60;99.90;;;;;;5027539;27;20033;-74
2022/07/04 01:40:28;;;;;;;9.25;3.95;;;11.60;99.90;;;;;;5000621;27;20573;-74
2022/07/04 01:42:54;;;;;;;7.65;3.85;;;11.60;99.90;;;;;;5025134;27;20132;-74
2022/07/04 01:45:19;;;;;;;7.68;3.80;;;11.60;99.90;;;;;;5026085;27;20129;-74
2022/07/04 01:47:45;;;;;;;6.78;3.70;;;11.60;99.90;;;;;;5010391;27;20048;-74
2022/07/04 01:50:13;;;;;;;8.15;3.60;;;11.60;99.90;;;;;;5028880;27;20064;-74
2022/07/04 01:52:40;;;;;;;8.52;3.30;;;11.60;99.90;;;;;;5014066;28;20116;-73
2022/07/04 01:55:07;;;;;;;7.47;3.75;;;11.60;99.90;;;;;;5014655;28;20102;-74
2022/07/04 01:57:33;;;;;;;6.50;3.25;;;11.50;99.90;;;;;;5031401;27;20053;-74
2022/07/04 02:02:43;;;;;;;6.25;3.72;;;11.50;99.90;;;;;;5025901;28;20049;-74
2022/07/04 02:05:09;;;;;;;6.00;3.30;;;11.50;99.90;;;;;;5011879;28;20459;-74
2022/07/04 02:07:35;;;;;;;6.30;3.53;;;11.50;99.90;;;;;;5027826;27;20037;-73
2022/07/04 02:10:01;;;;;;;9.27;3.58;;;11.50;99.90;;;;;;5027551;27;20132;-73
2022/07/04 02:15:11;;;;;;;8.60;3.58;;;11.50;99.90;;;;;;5010648;27;20408;-73
2022/07/04 02:17:37;;;;;;;8.35;3.55;;;11.60;99.90;;;;;;5013594;28;20037;-73
2022/07/04 02:20:04;;;;;;;9.18;3.80;;;11.50;99.90;;;;;;5009549;28;20125;-73
2022/07/04 02:22:31;;;;;;;9.30;4.28;;;11.40;99.90;;;;;;5021549;28;20371;-73
2022/07/04 02:24:57;;;;;;;7.82;4.30;;;11.50;99.90;;;;;;5016823;27;20067;-73
2022/07/04 02:27:23;;;;;;;9.85;4.15;;;11.40;99.90;;;;;;5020830;28;20042;-74
2022/07/04 02:29:48;;;;;;;9.15;5.30;;;11.50;99.90;;;;;;5023224;28;20033;-73
2022/07/04 02:32:14;;;;;;;8.15;4.47;;;11.40;99.90;;;;;;5020413;27;20044;-73
2022/07/04 02:34:41;;;;;;;10.55;5.40;;;11.40;99.90;;;;;;5017408;28;20038;-74
2022/07/04 02:37:07;;;;;;;9.30;5.55;;;11.40;99.90;;;;;;5012607;28;20042;-73
2022/07/04 02:39:32;;;;;;;12.20;6.43;;;11.50;99.90;;;;;;5023433;27;20041;-74
2022/07/04 02:41:58;;;;;;;12.52;6.35;;;11.50;99.90;;;;;;5016927;28;20049;-73
2022/07/04 02:44:25;;;;;;;10.35;5.38;;;11.50;99.90;;;;;;5016832;27;20041;-74
2022/07/04 02:46:50;;;;;;;9.70;6.20;;;11.50;99.90;;;;;;5027844;28;20371;-74
2022/07/04 02:49:16;;;;;;;14.65;6.78;;;11.50;99.90;;;;;;5023632;28;20037;-73
2022/07/04 02:51:42;;;;;;;11.45;7.20;;;11.50;99.90;;;;;;5022510;28;20073;-74
2022/07/04 02:54:08;;;;;;;14.27;6.82;;;11.50;99.90;;;;;;5026079;28;20041;-71
2022/07/04 02:56:34;;;;;;;11.93;7.00;;;11.60;99.90;;;;;;5027602;28;20041;-72
2022/07/04 02:59:00;;;;;;;11.52;7.00;;;11.50;99.90;;;;;;5023949;27;20040;-71
2022/07/04 03:01:26;;;;;;;11.32;6.65;;;11.50;99.90;;;;;;5023570;28;20132;-71
2022/07/04 03:03:51;;;;;;;14.15;7.20;;;11.60;99.90;;;;;;5030851;28;20033;-71
2022/07/04 03:06:17;;;;;;;12.40;7.05;;;11.60;99.90;;;;;;5023360;28;20037;-71
2022/07/04 03:08:43;;;;;;;13.10;7.85;;;11.60;99.90;;;;;;5023526;28;20170;-71
2022/07/04 03:11:09;;;;;;;11.90;7.57;;;11.60;99.90;;;;;;5006421;28;20049;-70
2022/07/04 03:13:36;;;;;;;10.68;6.78;;;11.60;99.90;;;;;;5024515;28;20090;-71
2022/07/04 03:16:01;;;;;;;12.25;7.28;;;11.60;99.90;;;;;;5048878;28;20046;-71
2022/07/04 03:18:27;;;;;;;10.35;6.80;;;11.50;99.90;;;;;;5024477;28;20137;-71
2022/07/04 03:20:53;;;;;;;10.45;6.95;;;11.60;99.90;;;;;;5022669;27;20053;-71
2022/07/04 03:23:19;;;;;;;12.65;7.32;;;11.80;99.90;;;;;;5024416;28;20034;-70
2022/07/04 03:25:44;;;;;;;13.48;6.90;;;11.70;99.90;;;;;;5021845;28;20967;-70
2022/07/04 03:28:10;;;;;;;13.73;7.22;;;11.60;99.90;;;;;;5025864;28;20044;-70
2022/07/04 03:30:36;;;;;;;12.32;7.25;;;11.70;99.90;;;;;;5025457;28;20067;-71
2022/07/04 03:33:02;;;;;;;14.45;7.55;;;11.70;99.90;;;;;;5005402;28;20041;-70
2022/07/04 03:35:29;;;;;;;11.75;7.00;;;11.70;99.90;;;;;;5020998;28;20064;-70
2022/07/04 03:37:55;;;;;;;11.68;6.60;;;11.70;99.90;;;;;;5016837;28;20146;-71
2022/07/04 03:40:21;;;;;;;11.80;8.32;;;11.70;99.90;;;;;;5022191;28;20448;-70
2022/07/04 03:42:47;;;;;;;13.00;8.38;;;11.70;99.90;;;;;;5023660;28;20045;-70
2022/07/04 03:45:13;;;;;;;15.98;8.13;;;11.70;99.90;;;;;;4999976;28;20146;-71
2022/07/04 03:47:39;;;;;;;12.13;7.68;;;11.80;99.90;;;;;;5026285;28;20116;-71
2022/07/04 03:50:05;;;;;;;14.82;8.27;;;11.80;99.90;;;;;;5024850;28;20080;-71
2022/07/04 03:52:31;;;;;;;14.30;8.90;;;11.80;99.90;;;;;;5019645;28;20413;-71
2022/07/04 03:54:57;;;;;;;11.82;7.53;;;11.90;99.90;;;;;;5025636;28;20041;-71
2022/07/04 03:57:23;;;;;;;14.50;8.45;;;11.90;99.90;;;;;;5020506;27;20156;-71
2022/07/04 03:59:48;;;;;;;14.23;7.80;;;11.90;99.90;;;;;;5019637;28;20129;-71
2022/07/04 04:02:14;;;;;;;16.33;8.88;;;11.90;99.90;;;;;;5020941;28;20135;-71
2022/07/04 04:07:25;;;;;;;13.60;8.13;;;12.00;99.90;;;;;;5016109;28;20681;-71
2022/07/04 04:09:50;;;;;;;15.57;8.65;;;12.10;99.90;;;;;;5036362;27;20152;-71
2022/07/04 04:12:16;;;;;;;12.75;7.78;;;12.20;99.90;;;;;;4998936;28;20046;-71
2022/07/04 04:14:42;;;;;;;14.80;8.50;;;12.20;99.90;;;;;;5017221;28;20880;-71
2022/07/04 04:17:08;;;;;;;13.80;7.03;;;12.40;99.90;;;;;;5022996;28;20053;-71
2022/07/04 04:19:34;;;;;;;13.10;7.13;;;12.30;99.90;;;;;;5022396;28;20078;-70
2022/07/04 04:22:00;;;;;;;14.48;7.85;;;12.40;99.90;;;;;;5024042;28;20195;-71
2022/07/04 04:24:25;;;;;;;13.88;7.22;;;12.40;99.90;;;;;;5027868;28;20045;-71
2022/07/04 04:26:51;;;;;;;12.32;7.05;;;12.50;99.90;;;;;;5021330;28;20674;-71
2022/07/04 04:29:17;;;;;;;13.23;7.00;;;12.60;99.90;;;;;;5007937;28;20041;-71
2022/07/04 04:31:42;;;;;;;12.25;7.30;;;12.70;99.90;;;;;;5027592;27;20033;-70
2022/07/04 04:34:08;;;;;;;11.50;7.38;;;12.80;99.90;;;;;;5022339;28;20193;-72
2022/07/04 04:36:34;;;;;;;12.18;7.10;;;12.90;99.90;;;;;;5029609;27;20052;-72
2022/07/04 04:39:00;;;;;;;14.43;7.28;;;13.10;99.90;;;;;;5025698;27;20705;-71
2022/07/04 04:41:25;;;;;;;12.73;6.60;;;14.20;99.90;;;;;;5026177;27;20401;-71
2022/07/04 04:43:51;;;;;;;9.80;5.45;;;15.40;99.90;;;;;;5025901;28;20045;-71
2022/07/04 04:46:17;;;;;;;8.25;4.88;;;16.40;99.90;;;;;;5024648;28;20049;-71
2022/07/04 04:48:43;;;;;;;7.38;4.78;;;17.20;99.90;;;;;;5006720;27;20252;-71
2022/07/04 04:51:09;;;;;;;9.40;4.35;;;18.00;99.90;;;;;;5051871;27;20289;-71
2022/07/04 04:53:35;;;;;;;9.35;4.50;;;18.90;99.90;;;;;;5005224;28;20040;-71
2022/07/04 04:56:00;;;;;;;12.85;3.88;;;19.60;99.90;;;;;;5009068;28;20056;-71
2022/07/04 04:58:26;;;;;;;8.40;3.92;;;20.10;99.90;;;;;;5023193;28;20045;-71
2022/07/04 05:00:52;;;;;;;6.65;3.45;;;19.80;99.90;;;;;;5025169;28;20034;-72
2022/07/04 05:03:18;;;;;;;11.02;3.42;;;20.50;99.90;;;;;;5025937;28;20040;-71
2022/07/04 05:05:45;;;;;;;7.38;3.08;;;21.30;99.90;;;;;;5017591;28;20041;-71
2022/07/04 05:08:14;;;;;;;8.40;3.40;;;21.90;99.90;;;;;;5021837;27;20421;-71
2022/07/04 05:10:40;;;;;;;7.10;3.15;;;22.70;99.90;;;;;;5016504;27;20433;-72
2022/07/04 05:13:06;;;;;;;8.48;3.40;;;22.60;99.90;;;;;;5033368;27;20045;-72
2022/07/04 05:15:32;;;;;;;7.93;4.00;;;23.30;99.90;;;;;;5051794;27;20052;-72
2022/07/04 05:17:58;;;;;;;7.03;3.28;;;23.80;99.90;;;;;;5027720;28;20045;-72
2022/07/04 05:20:24;;;;;;;8.82;3.63;;;24.30;99.90;;;;;;5008345;27;21030;-71
2022/07/04 05:22:50;;;;;;;8.52;3.25;;;23.20;99.90;;;;;;5026670;27;20054;-70
2022/07/04 05:25:15;;;;;;;6.85;2.83;;;22.50;99.90;;;;;;5026479;27;20124;-71
2022/07/04 05:27:41;;;;;;;6.70;3.28;;;22.90;99.90;;;;;;5030199;27;20540;-72
2022/07/04 05:30:07;;;;;;;11.70;3.28;;;23.70;99.90;;;;;;5028177;27;20095;-73
2022/07/04 05:32:34;;;;;;;7.80;3.33;;;24.40;99.90;;;;;;5041617;27;20049;-72
2022/07/04 05:34:59;;;;;;;8.68;2.95;;;24.70;99.90;;;;;;5040286;27;20049;-71
2022/07/04 05:37:26;;;;;;;10.25;3.17;;;23.60;99.90;;;;;;5056482;27;20416;-72
2022/07/04 05:39:51;;;;;;;8.85;3.25;;;22.50;99.90;;;;;;5041927;27;20093;-71
2022/07/04 05:42:17;;;;;;;7.38;3.20;;;21.40;99.90;;;;;;5046358;27;20054;-72
2022/07/04 05:44:43;;;;;;;11.52;3.80;;;20.50;99.90;;;;;;5024290;27;20185;-72
2022/07/04 05:47:09;;;;;;;8.55;3.05;;;19.90;99.90;;;;;;5027787;27;20051;-72
2022/07/04 05:49:36;;;;;;;10.48;3.72;;;19.30;99.90;;;;;;5033762;27;20411;-72
2022/07/04 05:52:02;;;;;;;8.23;3.47;;;18.90;99.90;;;;;;5036270;27;20049;-73
2022/07/04 05:54:28;;;;;;;6.68;3.50;;;18.60;99.90;;;;;;5004505;28;20174;-72
2022/07/04 05:56:53;;;;;;;7.70;3.47;;;18.40;99.90;;;;;;5026149;27;20053;-72
2022/07/04 05:59:19;;;;;;;7.18;3.55;;;18.30;99.90;;;;;;5005470;28;20272;-72
2022/07/04 06:01:45;;;;;;;9.60;3.42;;;18.50;99.90;;;;;;5021843;28;20049;-71
2022/07/04 06:04:11;;;;;;;7.97;3.40;;;18.70;99.90;;;;;;5037780;27;20048;-72
2022/07/04 06:06:37;;;;;;;7.13;3.10;;;19.90;99.90;;;;;;5022737;28;20041;-72
2022/07/04 06:09:03;;;;;;;8.85;3.53;;;20.30;99.90;;;;;;5023765;27;20083;-72
2022/07/04 06:11:29;;;;;;;8.95;3.90;;;20.80;99.90;;;;;;5028329;27;20490;-73
2022/07/04 06:13:55;;;;;;;9.00;2.92;;;22.30;99.90;;;;;;5021582;28;20049;-72
2022/07/04 06:16:21;;;;;;;8.73;2.97;;;23.10;99.90;;;;;;5037804;27;20093;-73
2022/07/04 06:18:47;;;;;;;8.60;3.40;;;22.80;99.90;;;;;;5020551;27;20040;-73
2022/07/04 06:21:13;;;;;;;7.78;3.28;;;23.70;99.90;;;;;;5021510;28;20747;-73
2022/07/04 06:23:38;;;;;;;8.73;3.28;;;24.60;99.90;;;;;;5036299;28;20041;-73
2022/07/04 06:26:04;;;;;;;11.68;3.70;;;24.90;99.90;;;;;;5026016;27;20045;-73
2022/07/04 06:28:30;;;;;;;8.75;2.97;;;23.70;99.90;;;;;;5026091;27;20497;-73
2022/07/04 06:30:56;;;;;;;12.88;3.65;;;22.50;99.90;;;;;;5060355;27;20053;-73
2022/07/04 06:33:25;;;;;;;9.57;3.03;;;21.50;99.90;;;;;;5008900;28;20040;-73
2022/07/04 06:35:58;;;;;;;8.18;2.83;;;20.80;99.90;;;;;;5053750;27;20762;-72
2022/07/04 06:38:29;;;;;;;8.32;3.00;;;20.20;99.90;;;;;;5054051;27;20117;-73
2022/07/04 06:40:58;;;;;;;10.80;3.33;;;19.80;99.90;;;;;;5054389;28;20045;-73
2022/07/04 06:43:24;;;;;;;9.05;2.75;;;19.50;99.90;;;;;;5039935;28;20093;-72
2022/07/04 06:45:50;;;;;;;9.73;2.45;;;19.20;99.90;;;;;;5025586;27;20075;-73
2022/07/04 06:48:17;;;;;;;11.27;2.90;;;19.20;99.90;;;;;;5055223;27;20425;-74
2022/07/04 06:50:42;;;;;;;11.60;3.55;;;19.10;99.90;;;;;;5040422;28;20040;-73
2022/07/04 06:53:09;;;;;;;10.82;3.00;;;19.10;99.90;;;;;;5039665;27;20157;-73
2022/07/04 06:55:36;;;;;;;9.23;3.10;;;19.10;99.90;;;;;;5022911;28;20040;-72
2022/07/04 06:58:03;;;;;;;10.25;3.45;;;19.00;99.90;;;;;;5042534;27;20048;-73
2022/07/04 07:00:31;;;;;;;7.82;3.08;;;19.00;99.90;;;;;;5038724;27;20110;-73
2022/07/04 07:02:58;;;;;;;9.43;3.03;;;19.00;99.90;;;;;;5025413;27;20123;-73
2022/07/04 07:05:25;;;;;;;12.27;3.63;;;19.00;99.90;;;;;;5058551;27;20405;-72
2022/07/04 07:07:51;;;;;;;7.85;2.88;;;19.10;99.90;;;;;;5025652;27;20049;-73
2022/07/04 07:10:17;;;;;;;8.02;2.55;;;19.20;99.90;;;;;;5045501;27;20063;-72
2022/07/04 07:12:42;;;;;;;11.48;2.90;;;19.20;99.90;;;;;;5028832;27;20413;-73
2022/07/04 07:15:09;;;;;;;9.95;3.00;;;19.20;99.90;;;;;;5044181;27;20061;-73
2022/07/04 07:17:35;;;;;;;10.05;3.03;;;19.30;99.90;;;;;;5027788;27;20430;-73
2022/07/04 07:20:00;;;;;;;10.43;2.95;;;19.30;99.90;;;;;;5027334;27;20698;-73
2022/07/04 07:22:26;;;;;;;9.57;3.35;;;19.30;99.90;;;;;;5029436;27;20052;-73
2022/07/04 07:24:55;;;;;;;9.23;2.60;;;19.30;99.90;;;;;;5007939;27;20049;-73
2022/07/04 07:27:21;;;;;;;8.95;2.85;;;19.50;99.90;;;;;;5026385;27;20042;-72
2022/07/04 07:29:47;;;;;;;8.10;2.75;;;20.00;99.90;;;;;;5024091;27;20048;-72
2022/07/04 07:32:13;;;;;;;9.05;2.60;;;20.30;99.90;;;;;;5007596;28;20840;-74
2022/07/04 07:34:38;;;;;;;9.32;2.90;;;20.40;99.90;;;;;;5019671;28;20044;-72
2022/07/04 07:37:04;;;;;;;8.73;2.60;;;20.50;99.90;;;;;;5002152;28;20139;-74
2022/07/04 07:39:30;;;;;;;8.82;2.75;;;20.40;99.90;;;;;;5014377;28;20037;-73
2022/07/04 07:41:56;;;;;;;10.55;3.25;;;20.10;99.90;;;;;;4997599;28;20390;-73
2022/07/04 07:44:22;;;;;;;7.95;2.95;;;19.90;99.90;;;;;;5036132;27;20049;-74
2022/07/04 07:46:47;;;;;;;9.05;2.58;;;19.60;99.90;;;;;;5040237;28;20393;-74
2022/07/04 07:49:13;;;;;;;8.82;2.67;;;19.30;99.90;;;;;;5004600;28;20056;-73
2022/07/04 07:51:39;;;;;;;6.20;2.53;;;19.00;99.90;;;;;;5018938;27;20037;-74
2022/07/04 07:54:05;;;;;;;11.45;2.78;;;18.90;99.90;;;;;;5033870;27;20601;-72
2022/07/04 07:56:31;;;;;;;9.90;2.78;;;18.70;99.90;;;;;;5020327;28;20044;-72
2022/07/04 07:58:57;;;;;;;7.18;2.42;;;18.60;99.90;;;;;;5013116;28;20455;-72
2022/07/04 08:01:23;;;;;;;6.22;2.10;;;18.50;99.90;;;;;;5036917;27;20044;-72
2022/07/04 08:06:33;;;;;;;6.35;2.25;;;18.30;99.90;;;;;;5017551;28;20045;-72
2022/07/04 08:08:59;;;;;;;5.70;1.95;;;18.20;99.90;;;;;;5012137;28;20048;-73
2022/07/04 08:11:25;;;;;;;6.38;1.90;;;18.30;99.90;;;;;;5032529;28;20049;-72
2022/07/04 08:13:52;;;;;;;6.70;2.00;;;18.40;99.90;;;;;;4993695;28;20133;-72
2022/07/04 08:16:18;;;;;;;8.35;2.10;;;18.40;99.90;;;;;;4997552;28;20052;-72
2022/07/04 08:18:44;;;;;;;5.90;2.00;;;18.50;99.90;;;;;;4996403;28;20049;-72
2022/07/04 08:21:10;;;;;;;6.30;1.80;;;18.60;99.90;;;;;;4997484;28;20497;-72
2022/07/04 08:23:36;;;;;;;6.72;1.88;;;18.70;99.90;;;;;;5009061;28;20041;-72
2022/07/04 08:26:03;;;;;;;5.78;2.00;;;18.70;99.90;;;;;;5012601;28;20174;-72
2022/07/04 08:28:29;;;;;;;5.72;1.40;;;18.80;99.90;;;;;;5007133;28;20421;-72
2022/07/04 08:30:56;;;;;;;6.22;1.40;;;18.80;99.90;;;;;;5012442;28;20059;-71
2022/07/04 08:33:23;;;;;;;5.13;1.45;;;19.00;99.90;;;;;;5013080;28;20041;-72
2022/07/04 08:35:49;;;;;;;6.47;1.80;;;19.10;99.90;;;;;;4996637;28;20041;-72
2022/07/04 08:38:17;;;;;;;6.53;1.58;;;19.20;99.90;;;;;;5009747;28;20049;-72
2022/07/04 08:40:43;;;;;;;4.53;1.48;;;19.70;99.90;;;;;;5029518;28;20049;-71
2022/07/04 08:43:13;;;;;;;5.78;1.60;;;20.20;99.90;;;;;;5012414;28;20048;-71
2022/07/04 08:45:41;;;;;;;4.88;1.52;;;20.80;99.90;;;;;;4996089;28;20192;-73
2022/07/04 08:48:09;;;;;;;5.38;1.60;;;21.50;99.90;;;;;;5012246;28;20086;-73
2022/07/04 08:50:43;;;;;;;7.15;1.55;;;22.10;99.90;;;;;;4996275;28;20049;-73
2022/07/04 08:53:17;;;;;;;2.45;1.00;;;22.70;99.90;;;;;;5042564;27;20065;-72
2022/07/04 08:58:31;;;;;;;4.20;1.10;;;23.20;99.90;;;;;;5011438;28;20182;-72
2022/07/04 09:00:58;;;;;;;1.67;0.70;;;23.30;99.90;;;;;;5014469;28;20736;-72
2022/07/04 09:03:25;;;;;;;3.15;1.20;;;23.10;99.90;;;;;;5010703;28;20068;-73
2022/07/04 09:05:52;;;;;;;2.83;1.10;;;23.10;99.90;;;;;;5011345;28;20046;-72
2022/07/04 09:08:18;;;;;;;4.00;1.35;;;23.30;99.90;;;;;;5014916;28;20132;-72
2022/07/04 09:10:45;;;;;;;2.88;1.08;;;23.40;99.90;;;;;;5011820;28;20197;-72
2022/07/04 09:13:14;;;;;;;6.43;1.20;;;23.10;99.90;;;;;;5028396;28;20068;-72
2022/07/04 09:15:42;;;;;;;3.83;1.05;;;22.70;99.90;;;;;;5019187;28;20049;-72
2022/07/04 09:18:25;;;;;;;4.25;0.88;;;22.40;99.90;;;;;;5009649;28;20467;-71
2022/07/04 09:20:53;;;;;;;4.82;1.00;;;21.90;99.90;;;;;;5003864;28;20128;-71
2022/07/04 09:23:28;;;;;;;2.90;1.00;;;21.70;99.90;;;;;;5019624;27;20622;-71
2022/07/04 09:26:09;;;;;;;3.72;1.20;;;21.60;99.90;;;;;;5034670;28;21260;-71
2022/07/04 09:28:35;;;;;;;;;;;21.60;99.90;;;;;;5028731;28;20061;-73
2022/07/04 09:31:00;;;;;;;8.23;1.65;;;21.40;99.90;;;;;;5012189;28;19936;-73
2022/07/04 09:33:56;;;;;;;3.83;1.00;;;21.40;99.90;;;;;;5016860;28;20131;-73
2022/07/04 09:36:25;;;;;;;3.33;1.25;;;21.50;99.90;;;;;;5026699;27;20044;-72
2022/07/04 09:39:21;;;;;;;4.07;1.15;;;21.80;99.90;;;;;;5052742;28;20729;-72
2022/07/04 09:41:59;;;;;;;4.10;1.10;;;22.20;99.90;;;;;;5017805;28;20052;-72
2022/07/04 09:44:46;;;;;;;5.82;1.27;;;22.70;99.90;;;;;;5049582;27;20571;-73
2022/07/04 09:47:23;;;;;;;5.03;1.25;;;23.30;99.90;;;;;;5036249;28;20501;-71
2022/07/04 09:50:06;;;;;;;3.75;1.10;;;23.20;99.90;;;;;;5052548;27;20116;-71
2022/07/04 09:52:53;;;;;;;6.43;1.33;;;22.80;99.90;;;;;;5037144;27;20127;-71
2022/07/04 09:55:23;;;;;;;2.25;0.90;;;22.40;99.90;;;;;;5008633;27;20048;-71
2022/07/04 09:57:49;;;;;;;6.22;1.25;;;22.40;99.90;;;;;;5034959;28;20052;-72
2022/07/04 10:00:16;;;;;;;6.07;1.17;;;22.80;99.90;;;;;;5035630;27;20123;-70
2022/07/04 10:02:42;;;;;;;3.25;1.20;;;23.40;99.90;;;;;;5019840;27;20041;-70
2022/07/04 10:05:08;;;;;;;5.38;1.13;;;23.80;99.90;;;;;;5012788;27;20057;-72
2022/07/04 10:07:43;;;;;;;6.35;1.17;;;24.10;99.90;;;;;;5056323;27;20470;-72
2022/07/04 10:10:39;;;;;;;2.67;0.93;;;24.20;99.90;;;;;;5015403;28;20052;-71
2022/07/04 10:13:13;;;;;;;4.10;1.27;;;24.20;99.90;;;;;;5017969;27;20065;-71
2022/07/04 10:15:41;;;;;;;3.35;1.00;;;24.30;99.90;;;;;;5034719;28;20053;-71
2022/07/04 10:18:08;;;;;;;3.85;1.20;;;24.40;99.90;;;;;;5018279;28;20441;-72
2022/07/04 10:20:34;;;;;;;5.30;1.20;;;24.60;99.90;;;;;;5052107;27;20075;-72
2022/07/04 10:23:01;;;;;;;3.78;1.42;;;24.60;99.90;;;;;;5035072;27;20421;-71
2022/07/04 10:25:28;;;;;;;3.17;1.10;;;24.70;99.90;;;;;;5050978;27;20044;-72
2022/07/04 10:27:55;;;;;;;4.60;1.20;;;24.80;99.90;;;;;;5054068;27;20092;-73
2022/07/04 10:30:29;;;;;;;4.43;1.02;;;24.70;99.90;;;;;;5040223;27;20053;-73
2022/07/04 10:32:59;;;;;;;3.80;0.85;;;24.70;98.90;;;;;;5005512;28;20041;-73
2022/07/04 10:35:49;;;;;;;5.00;1.00;;;24.70;98.20;;;;;;5026910;27;20092;-73
2022/07/04 10:38:17;;;;;;;3.10;1.05;;;24.80;97.70;;;;;;5027900;27;20166;-73
2022/07/04 10:40:54;;;;;;;3.22;0.77;;;24.90;97.10;;;;;;5032191;27;20211;-73
2022/07/04 10:43:40;;;;;;;2.20;0.70;;;25.00;97.30;;;;;;5014940;27;20052;-72
2022/07/04 10:46:15;;;;;;;2.45;0.80;;;25.10;98.60;;;;;;5046409;27;20070;-71
2022/07/04 10:48:54;;;;;;;3.78;1.13;;;25.20;97.00;;;;;;5048998;27;20037;-72
2022/07/04 10:51:45;;;;;;;4.35;1.00;;;25.00;95.90;;;;;;5016131;28;20171;-72
2022/07/04 10:54:15;;;;;;;4.82;0.98;;;24.80;96.30;;;;;;5032920;27;20045;-73
2022/07/04 10:56:42;;;;;;;4.60;0.93;;;24.40;96.50;;;;;;4999438;28;20037;-72
2022/07/04 10:59:17;;;;;;;4.68;1.10;;;23.90;96.00;;;;;;5014906;27;20395;-72
2022/07/04 11:01:52;;;;;;;5.22;0.90;;;24.00;98.00;;;;;;5029557;27;20132;-74
2022/07/04 11:04:52;;;;;;;3.42;1.00;;;24.20;97.50;;;;;;4998938;28;20045;-73
2022/07/04 11:07:38;;;;;;;3.78;1.20;;;24.40;94.60;;;;;;5005258;28;20508;-72
2022/07/04 11:10:13;;;;;;;2.60;0.70;;;24.30;94.80;;;;;;5016027;28;20099;-73
2022/07/04 11:12:56;;;;;;;1.95;0.90;;;24.10;94.10;;;;;;5009137;28;20045;-74
2022/07/04 11:15:28;;;;;;;2.53;0.55;;;24.20;94.50;;;;;;5035608;27;20641;-73
2022/07/04 11:18:01;;;;;;;2.63;0.93;;;24.10;94.70;;;;;;5040277;27;20045;-73
2022/07/04 11:20:29;;;;;;;7.53;0.90;;;24.20;94.30;;;;;;5057442;27;20412;-74
2022/07/04 11:23:16;;;;;;;4.22;0.82;;;24.20;92.60;;;;;;5013785;27;20048;-73
2022/07/04 11:25:45;;;;;;;4.47;1.20;;;24.20;93.40;;;;;;5029390;28;20187;-74
2022/07/04 11:28:25;;;;;;;5.47;1.10;;;24.30;94.00;;;;;;4995542;27;20045;-71
2022/07/04 11:30:55;;;;;;;5.68;0.80;;;24.40;93.20;;;;;;5029347;27;20553;-74
2022/07/04 11:33:31;;;;;;;2.17;1.00;;;24.50;94.30;;;;;;5029998;27;20045;-74
2022/07/04 11:36:05;;;;;;;4.75;0.93;;;24.60;93.60;;;;;;5048815;27;20048;-73
2022/07/04 11:38:44;;;;;;;4.20;0.88;;;24.40;92.90;;;;;;5076020;27;20041;-73
2022/07/04 11:46:38;;;;;;;4.05;0.90;;;24.20;93.40;;;;;;5016215;28;20099;-72
2022/07/04 11:49:09;;;;;;;6.43;1.00;;;24.40;92.60;;;;;;5030626;28;20459;-74
2022/07/04 11:51:35;;;;;;;3.15;0.98;;;24.50;92.30;;;;;;5030982;27;20037;-73
2022/07/04 11:54:04;;;;;;;3.28;0.82;;;24.30;91.70;;;;;;5030693;28;20041;-73
2022/07/04 11:56:30;;;;;;;3.95;0.93;;;24.30;92.50;;;;;;4997039;28;20072;-72
2022/07/04 11:59:08;;;;;;;3.90;1.00;;;24.40;92.50;;;;;;5033153;27;20581;-72
2022/07/04 12:01:33;;;;;;;3.60;0.90;;;24.40;91.90;;;;;;5028185;28;20053;-73
2022/07/04 12:04:12;;;;;;;5.78;1.42;;;24.30;90.60;;;;;;5012673;27;20493;-74
2022/07/04 12:06:38;;;;;;;7.63;1.25;;;24.30;90.90;;;;;;5027836;27;20156;-73
2022/07/04 12:09:04;;;;;;;4.30;1.15;;;24.20;91.20;;;;;;5014709;28;20077;-74
2022/07/04 12:12:07;;;;;;;5.20;0.85;;;24.40;91.70;;;;;;5026022;27;20048;-73
2022/07/04 12:14:34;;;;;;;5.18;1.02;;;24.50;92.30;;;;;;5031892;27;20055;-73
2022/07/04 12:17:10;;;;;;;4.75;1.10;;;24.70;92.10;;;;;;5027915;27;20117;-70
2022/07/04 12:19:36;;;;;;;5.53;1.27;;;24.80;91.70;;;;;;5029285;27;20045;-72
2022/07/04 12:22:02;;;;;;;3.63;1.00;;;24.70;91.50;;;;;;5011951;28;20053;-73
2022/07/04 12:24:28;;;;;;;6.30;1.40;;;24.50;91.80;;;;;;5013775;28;20045;-73
2022/07/04 12:26:54;;;;;;;6.13;1.58;;;24.60;93.70;;;;;;5027612;27;20045;-73
2022/07/04 12:29:22;;;;;;;5.03;1.20;;;24.80;93.20;;;;;;4996607;28;20056;-72
2022/07/04 12:31:55;;;;;;;3.95;0.90;;;24.90;92.80;;;;;;5011858;28;20052;-72
2022/07/04 12:34:21;;;;;;;4.53;0.90;;;24.60;92.00;;;;;;5041665;27;20044;-72
2022/07/04 12:36:55;;;;;;;4.20;1.00;;;24.60;93.20;;;;;;5044265;27;20431;-73
2022/07/04 12:39:37;;;;;;;5.07;1.27;;;24.60;92.80;;;;;;5014230;28;20132;-73
2022/07/04 12:42:17;;;;;;;3.83;1.30;;;24.60;91.70;;;;;;5014607;28;20572;-72
2022/07/04 12:44:45;;;;;;;4.13;1.00;;;24.40;91.70;;;;;;5028812;27;20102;-72
2022/07/04 12:47:12;;;;;;;5.10;1.40;;;24.00;91.30;;;;;;5044561;27;20183;-72
2022/07/04 12:49:43;;;;;;;5.18;1.48;;;23.80;91.70;;;;;;5016881;28;20053;-72
2022/07/04 12:52:16;;;;;;;3.35;1.00;;;23.80;92.30;;;;;;5033370;28;20047;-72
2022/07/04 12:54:45;;;;;;;1.73;0.80;;;23.70;90.90;;;;;;5048139;27;20079;-73
2022/07/04 12:57:14;;;;;;;4.25;0.80;;;23.70;90.30;;;;;;4997150;28;20086;-70
2022/07/04 12:59:41;;;;;;;4.75;1.00;;;23.80;90.60;;;;;;5029240;28;20045;-72
2022/07/04 13:02:08;;;;;;;4.75;0.95;;;23.80;90.90;;;;;;5017628;27;20064;-72
2022/07/04 13:04:35;;;;;;;2.83;0.88;;;23.80;91.80;;;;;;5048258;27;20045;-72
2022/07/04 13:07:13;;;;;;;3.50;1.00;;;23.90;91.80;;;;;;5033137;27;20513;-73
2022/07/04 13:09:40;;;;;;;2.63;0.80;;;24.20;92.00;;;;;;5030452;27;20041;-75